Phoenix Sky Harbor International Airport
KPHX : now visible

Airfield :











YOU CAN JOIN US ON...

 
LOGIN :

Register | Disclaimer

   EN    FR    IT 

 









Legend :    VFR   Marginal VFR   IFR   Intensive IFR   Very Intensive IFR
Visi :
Ceiling :
>= 8 km
>= 3000ft
5 to 8 km
1000 to 3000 ft
1500m to 5 km
500 to 1000 ft
800 to 1500m
200 to 500 ft
< 800m
< 200 ft
Symbols :   Thunderstorms  Fog  Heavy snow  Heavy precipitations  Wind > 20 kt






- Airport Elevation : 1135 ft
- IATA code : PHX


KPHX - Phoenix Sky Harbor International

CURRENT METAR :
  • 061551Z 00000KT 10SM SCT210 BKN240 14/08 A3019 RMK AO2 SLP217 T01390078

EXPIRED METARs :
  • 061451Z 08003KT 10SM SCT210 BKN240 13/07 A3017 RMK AO2 SLP209 T01330072 53017
  • 061351Z 00000KT 10SM BKN250 12/08 A3015 RMK AO2 SLP203 T01220078

TAF KPHX
Valid from the 06 at 15:00 until the 07 at 18:00 UTC


061503Z 0615/0718 12004KT P6SM BKN200
FM070000 28004KT P6SM BKN200
FM070600 11004KT P6SM SCT200



MET'MAP, your aeronautical weather chart ! - Copyright ORBIFLY December 2007 - Disclaimer

ORBIFLY MET'MAP TEAM :

Programming & Development : Alexandra Zaïnal
Concept & original design : Baudouin d'Aumeries
Assistance for programming : Marc-Olivier Méhu
Technical & hardware support : Manuel Goepfert

Contact : metmap@orbifly.com




SOURCES & CREDITS :

   NOAA       Earth
Advisory